Meteo Giornale » Osservazioni meteo Austria » Graz-Thalerhof

ore: 14:50 - Osservazioni Meteo Graz-Thalerhof
Lat. 47° 0' N Lon. 15° 26' E Alt. 340 metri s.l.m.

nuvoloso Europe/Vienna

21 °C

Nuvoloso

Temp. 24 Ore

13 °C

29 °C

Est

7.4 Km/h

Dew point 5 °C

Umidità 35 %

Visibilità  10 Km

Il sole sorge alle ore 05:10

Il sole tramonta alle ore 20:56

Data e Ora Cielo e Fenomeni T °C DP °C Um. % Pres. hPa Vis. km Vento km/h
Oggi h: 14:50 nuvoloso Nuvoloso 21 5 35 1018 10 E 7.4
Oggi h: 14:20 nuvoloso Nuvoloso 22 7 37 1018 10 N 3.7
Oggi h: 13:50 nuvoloso Nuvoloso 21 5 35 1018 10 N 5.5
Oggi h: 13:20 nuvoloso Nuvoloso 21 6 37 1018 10 N 9.3
Oggi h: 12:50 poco_nuvoloso Poco Nuvoloso 21 7 40 1018 10 N 7.4
Oggi h: 12:20 poco_nuvoloso Poco Nuvoloso 20 5 37 1019 10 N 9.3
Oggi h: 11:50 poco_nuvoloso Poco Nuvoloso 20 6 39 1019 10 N 18.5
Oggi h: 11:20 poco_nuvoloso Poco Nuvoloso 20 6 39 1019 10 N 24
Oggi h: 10:50 poco_nuvoloso Poco Nuvoloso 20 5 37 1019 10 N 33.3
Oggi h: 10:20 poco_nuvoloso Poco Nuvoloso 19 6 42 1019 10 N 31.5
Oggi h: 09:50 poco_nuvoloso Poco Nuvoloso 19 6 42 1019 10 N/NO 18.5
Oggi h: 09:20 poco_nuvoloso Poco Nuvoloso 18 6 45 1019 10 N/NO 16.7
Oggi h: 08:50 poco_nuvoloso Poco Nuvoloso 17 9 59 1019 10 N 5.5
Oggi h: 08:20 poco_nuvoloso Poco Nuvoloso 17 9 59 1019 10 N 1.8
Oggi h: 07:50 poco_nuvoloso Poco Nuvoloso 15 10 72 1019 10 N 1.8
Oggi h: 07:20 poco_nuvoloso Poco Nuvoloso 14 11 82 1019 10 N 5.5
Oggi h: 06:50 poco_nuvoloso Poco Nuvoloso 14 12 87 1019 10 S/SE 7.4
Oggi h: 06:20 poco_nuvoloso Poco Nuvoloso 13 11 87 1018 10 N 5.5
Oggi h: 05:50 poco_nuvoloso Poco Nuvoloso 13 11 87 1018 10 O/NO 14.8
Oggi h: 05:20 sereno Sereno 13 12 93 1018 10 O/NO 9.3
Oggi h: 04:50 sereno Sereno 13 12 93 1018 10 O/NO 9.3
Oggi h: 04:20 sereno Sereno 13 12 93 1017 10 N 5.5
Oggi h: 03:50 sereno Sereno 13 12 93 1017 10 N 3.7
Oggi h: 03:20 poco_nuvoloso Poco Nuvoloso 13 12 93 1017 10 N 1.8
Oggi h: 02:50 nuvoloso_piovaschi Debole Rovescio di Pioggia 13 12 93 1018 10 O/SO 7.4
Oggi h: 02:20 nuvoloso_piovaschi Debole Rovescio di Pioggia 13 12 93 1017 10 SO 7.4
Oggi h: 01:50 coperto_pioggia Pioggia Debole 13 12 93 1017 10 SO 7.4
Oggi h: 01:20 coperto_pioggia Pioggia Debole 13 12 93 1017 10 SO 7.4
Oggi h: 00:50 coperto_pioggia Pioggia Debole 13 12 93 1017 10 N 3.7
Oggi h: 00:20 coperto_pioggia Pioggia Debole 13 12 93 1017 10 N 5.5
Ieri h: 23:50 nuvoloso_piovaschi Debole Rovescio di Pioggia 13 12 93 1017 10 N 5.5
Ieri h: 23:20 coperto_pioggia Pioggia 14 11 82 1017 10 N 5.5
Ieri h: 22:50 coperto_pioggia Pioggia 14 11 82 1016 8 NO 13
Ieri h: 22:20 coperto_pioggia Pioggia 14 11 82 1015 8 NO 22.2
Ieri h: 21:50 nuvoloso_piovaschi Rovescio di Pioggia 14 11 82 1014 8 N/NO 22.2
Ieri h: 21:20 nuvoloso_piovaschi Rovescio di Pioggia 15 11 76 1013 7 N/NO 29.6
Ieri h: 20:50 nuvoloso_temporali Temporale con Pioggia 16 13 82 1012 6 N 31.5
Ieri h: 20:20 nuvoloso_temporali Temporale con Pioggia 20 13 64 1011 10 N/NO 38.8
Ieri h: 19:50 molto_nuvoloso Molto Nuvoloso 22 15 64 1009 10 N 50
Ieri h: 19:20 nuvoloso Nuvoloso 27 16 50 1008 10 E/SE 9.3
Ieri h: 18:50 poco_nuvoloso Poco Nuvoloso 28 15 45 1008 10 E/SE 9.3
Ieri h: 18:20 poco_nuvoloso Poco Nuvoloso 29 16 45 1008 10 S/SE 13
Ieri h: 17:50 nuvoloso Nuvoloso 28 15 45 1008 10 S/SE 11.1
Ieri h: 17:20 poco_nuvoloso Poco Nuvoloso 28 15 45 1008 10 S/SE 9.3
Ieri h: 16:50 poco_nuvoloso Poco Nuvoloso 29 15 42 1009 10 S 11.1
Ieri h: 16:20 poco_nuvoloso Poco Nuvoloso 29 14 39 1009 10 S 9.3
Ieri h: 15:50 poco_nuvoloso Poco Nuvoloso 28 16 48 1009 10 S 11.1